sensor_id;sensor_type;location;lat;lon;timestamp;P1;durP1;ratioP1;P2;durP2;ratioP2
4132;SDS011;2080;51.038;7.008;2022-09-09T00:04:40;414.30;;;306.20;;
4132;SDS011;2080;51.038;7.008;2022-09-09T00:06:50;434.37;;;333.47;;
4132;SDS011;2080;51.038;7.008;2022-09-09T00:09:19;498.40;;;445.63;;
4132;SDS011;2080;51.038;7.008;2022-09-09T00:11:54;459.87;;;403.17;;
4132;SDS011;2080;51.038;7.008;2022-09-09T00:14:36;440.97;;;370.47;;
4132;SDS011;2080;51.038;7.008;2022-09-09T00:17:04;462.60;;;400.63;;
4132;SDS011;2080;51.038;7.008;2022-09-09T00:22:21;387.83;;;218.53;;
4132;SDS011;2080;51.038;7.008;2022-09-09T00:24:53;364.70;;;188.33;;
4132;SDS011;2080;51.038;7.008;2022-09-09T00:27:36;386.73;;;222.67;;
4132;SDS011;2080;51.038;7.008;2022-09-09T00:30:19;414.00;;;296.90;;
4132;SDS011;2080;51.038;7.008;2022-09-09T00:32:59;437.33;;;354.50;;
4132;SDS011;2080;51.038;7.008;2022-09-09T00:35:37;518.70;;;465.03;;
4132;SDS011;2080;51.038;7.008;2022-09-09T00:38:28;524.83;;;471.00;;
4132;SDS011;2080;51.038;7.008;2022-09-09T00:41:21;502.93;;;449.93;;
4132;SDS011;2080;51.038;7.008;2022-09-09T00:44:02;531.47;;;477.00;;
4132;SDS011;2080;51.038;7.008;2022-09-09T00:46:56;452.97;;;393.23;;
4132;SDS011;2080;51.038;7.008;2022-09-09T00:52:28;516.60;;;463.10;;
4132;SDS011;2080;51.038;7.008;2022-09-09T00:57:26;437.47;;;358.80;;
4132;SDS011;2080;51.038;7.008;2022-09-09T01:00:15;434.73;;;354.23;;
4132;SDS011;2080;51.038;7.008;2022-09-09T01:02:49;411.80;;;287.43;;
4132;SDS011;2080;51.038;7.008;2022-09-09T01:08:39;349.70;;;148.30;;
4132;SDS011;2080;51.038;7.008;2022-09-09T01:16:48;366.77;;;183.60;;
4132;SDS011;2080;51.038;7.008;2022-09-09T01:19:21;359.60;;;152.97;;
4132;SDS011;2080;51.038;7.008;2022-09-09T01:21:59;353.07;;;154.73;;
4132;SDS011;2080;51.038;7.008;2022-09-09T01:24:38;328.27;;;121.50;;
4132;SDS011;2080;51.038;7.008;2022-09-09T01:27:12;365.63;;;185.90;;
4132;SDS011;2080;51.038;7.008;2022-09-09T01:29:39;352.57;;;162.90;;
4132;SDS011;2080;51.038;7.008;2022-09-09T01:35:08;325.43;;;100.57;;
4132;SDS011;2080;51.038;7.008;2022-09-09T01:37:44;328.60;;;116.40;;
4132;SDS011;2080;51.038;7.008;2022-09-09T01:40:10;352.13;;;152.07;;
4132;SDS011;2080;51.038;7.008;2022-09-09T01:42:35;374.63;;;205.17;;
4132;SDS011;2080;51.038;7.008;2022-09-09T01:45:01;338.13;;;128.43;;
4132;SDS011;2080;51.038;7.008;2022-09-09T01:47:29;349.60;;;156.50;;
4132;SDS011;2080;51.038;7.008;2022-09-09T01:49:54;347.20;;;146.57;;
4132;SDS011;2080;51.038;7.008;2022-09-09T01:52:20;346.07;;;143.57;;
4132;SDS011;2080;51.038;7.008;2022-09-09T01:54:45;349.33;;;153.73;;
4132;SDS011;2080;51.038;7.008;2022-09-09T01:59:48;374.40;;;220.50;;
4132;SDS011;2080;51.038;7.008;2022-09-09T02:10:46;380.17;;;191.97;;
4132;SDS011;2080;51.038;7.008;2022-09-09T02:13:18;369.00;;;186.70;;
4132;SDS011;2080;51.038;7.008;2022-09-09T02:15:52;376.87;;;201.13;;
4132;SDS011;2080;51.038;7.008;2022-09-09T02:18:27;364.57;;;195.17;;
4132;SDS011;2080;51.038;7.008;2022-09-09T02:20:58;395.87;;;263.97;;
4132;SDS011;2080;51.038;7.008;2022-09-09T02:23:27;465.70;;;403.13;;
4132;SDS011;2080;51.038;7.008;2022-09-09T02:25:53;391.53;;;229.43;;
4132;SDS011;2080;51.038;7.008;2022-09-09T02:28:23;356.67;;;178.47;;
4132;SDS011;2080;51.038;7.008;2022-09-09T02:30:51;357.47;;;164.13;;
4132;SDS011;2080;51.038;7.008;2022-09-09T02:33:22;362.47;;;170.03;;
4132;SDS011;2080;51.038;7.008;2022-09-09T02:35:53;343.93;;;138.80;;
4132;SDS011;2080;51.038;7.008;2022-09-09T02:38:26;372.27;;;198.70;;
4132;SDS011;2080;51.038;7.008;2022-09-09T02:40:57;359.63;;;166.67;;
4132;SDS011;2080;51.038;7.008;2022-09-09T02:43:23;380.07;;;213.37;;
4132;SDS011;2080;51.038;7.008;2022-09-09T02:51:24;457.73;;;389.73;;
4132;SDS011;2080;51.038;7.008;2022-09-09T02:56:47;364.07;;;173.40;;
4132;SDS011;2080;51.038;7.008;2022-09-09T02:59:21;381.50;;;211.67;;
4132;SDS011;2080;51.038;7.008;2022-09-09T03:01:47;360.13;;;168.23;;
4132;SDS011;2080;51.038;7.008;2022-09-09T03:04:13;422.20;;;327.57;;
4132;SDS011;2080;51.038;7.008;2022-09-09T03:06:38;493.27;;;440.03;;
4132;SDS011;2080;51.038;7.008;2022-09-09T03:09:04;443.97;;;349.57;;
4132;SDS011;2080;51.038;7.008;2022-09-09T03:11:29;445.10;;;350.67;;
4132;SDS011;2080;51.038;7.008;2022-09-09T03:13:55;421.00;;;313.50;;
4132;SDS011;2080;51.038;7.008;2022-09-09T03:16:23;378.77;;;217.73;;
4132;SDS011;2080;51.038;7.008;2022-09-09T03:18:50;374.00;;;198.77;;
4132;SDS011;2080;51.038;7.008;2022-09-09T03:21:16;398.70;;;240.23;;
4132;SDS011;2080;51.038;7.008;2022-09-09T03:23:41;454.67;;;363.67;;
4132;SDS011;2080;51.038;7.008;2022-09-09T03:26:12;432.87;;;341.13;;
4132;SDS011;2080;51.038;7.008;2022-09-09T03:28:40;361.23;;;176.37;;
4132;SDS011;2080;51.038;7.008;2022-09-09T03:31:06;392.13;;;241.67;;
4132;SDS011;2080;51.038;7.008;2022-09-09T03:33:33;387.93;;;220.40;;
4132;SDS011;2080;51.038;7.008;2022-09-09T03:35:59;381.77;;;225.63;;
4132;SDS011;2080;51.038;7.008;2022-09-09T03:38:24;348.20;;;148.77;;
4132;SDS011;2080;51.038;7.008;2022-09-09T03:40:53;366.77;;;204.27;;
4132;SDS011;2080;51.038;7.008;2022-09-09T03:43:23;361.70;;;161.50;;
4132;SDS011;2080;51.038;7.008;2022-09-09T03:45:53;348.53;;;158.70;;
4132;SDS011;2080;51.038;7.008;2022-09-09T03:48:22;369.10;;;185.63;;
4132;SDS011;2080;51.038;7.008;2022-09-09T03:50:51;376.90;;;215.80;;
4132;SDS011;2080;51.038;7.008;2022-09-09T03:53:19;374.00;;;184.53;;
4132;SDS011;2080;51.038;7.008;2022-09-09T03:55:51;348.70;;;152.70;;
4132;SDS011;2080;51.038;7.008;2022-09-09T03:58:24;396.93;;;260.87;;
4132;SDS011;2080;51.038;7.008;2022-09-09T04:00:53;366.00;;;175.63;;
4132;SDS011;2080;51.038;7.008;2022-09-09T04:03:26;365.80;;;192.27;;
4132;SDS011;2080;51.038;7.008;2022-09-09T04:05:52;344.27;;;125.27;;
4132;SDS011;2080;51.038;7.008;2022-09-09T04:08:21;383.77;;;199.57;;
4132;SDS011;2080;51.038;7.008;2022-09-09T04:10:49;370.93;;;197.83;;
4132;SDS011;2080;51.038;7.008;2022-09-09T04:13:18;364.13;;;182.80;;
4132;SDS011;2080;51.038;7.008;2022-09-09T04:15:51;374.67;;;192.90;;
4132;SDS011;2080;51.038;7.008;2022-09-09T04:18:17;365.90;;;183.80;;
4132;SDS011;2080;51.038;7.008;2022-09-09T04:20:45;394.73;;;221.70;;
4132;SDS011;2080;51.038;7.008;2022-09-09T04:23:15;398.67;;;257.83;;
4132;SDS011;2080;51.038;7.008;2022-09-09T04:25:47;370.50;;;218.57;;
4132;SDS011;2080;51.038;7.008;2022-09-09T04:28:18;376.63;;;201.87;;
4132;SDS011;2080;51.038;7.008;2022-09-09T04:30:47;363.33;;;175.37;;
4132;SDS011;2080;51.038;7.008;2022-09-09T04:33:13;435.10;;;336.10;;
4132;SDS011;2080;51.038;7.008;2022-09-09T04:35:39;413.30;;;273.63;;
4132;SDS011;2080;51.038;7.008;2022-09-09T04:38:14;382.17;;;237.23;;
4132;SDS011;2080;51.038;7.008;2022-09-09T04:40:44;394.37;;;255.57;;
4132;SDS011;2080;51.038;7.008;2022-09-09T04:43:14;378.10;;;193.73;;
4132;SDS011;2080;51.038;7.008;2022-09-09T04:45:40;384.87;;;218.57;;
4132;SDS011;2080;51.038;7.008;2022-09-09T04:48:13;358.30;;;168.27;;
4132;SDS011;2080;51.038;7.008;2022-09-09T04:50:39;423.77;;;335.63;;
4132;SDS011;2080;51.038;7.008;2022-09-09T04:53:05;458.33;;;375.83;;
4132;SDS011;2080;51.038;7.008;2022-09-09T04:55:34;457.00;;;383.00;;
4132;SDS011;2080;51.038;7.008;2022-09-09T04:58:06;455.43;;;391.83;;
4132;SDS011;2080;51.038;7.008;2022-09-09T05:00:34;478.50;;;427.87;;
4132;SDS011;2080;51.038;7.008;2022-09-09T05:03:06;473.40;;;413.43;;
4132;SDS011;2080;51.038;7.008;2022-09-09T05:05:34;455.93;;;395.70;;
4132;SDS011;2080;51.038;7.008;2022-09-09T05:08:00;489.37;;;433.80;;
4132;SDS011;2080;51.038;7.008;2022-09-09T05:10:30;422.23;;;339.37;;
4132;SDS011;2080;51.038;7.008;2022-09-09T05:12:56;442.80;;;379.93;;
4132;SDS011;2080;51.038;7.008;2022-09-09T05:15:22;443.77;;;346.07;;
4132;SDS011;2080;51.038;7.008;2022-09-09T05:17:47;421.23;;;332.33;;
4132;SDS011;2080;51.038;7.008;2022-09-09T05:20:13;433.37;;;366.03;;
4132;SDS011;2080;51.038;7.008;2022-09-09T05:22:41;487.47;;;434.37;;
4132;SDS011;2080;51.038;7.008;2022-09-09T05:25:09;455.63;;;394.17;;
4132;SDS011;2080;51.038;7.008;2022-09-09T05:27:34;437.60;;;348.13;;
4132;SDS011;2080;51.038;7.008;2022-09-09T05:30:00;549.87;;;494.10;;
4132;SDS011;2080;51.038;7.008;2022-09-09T05:32:25;508.63;;;455.00;;
4132;SDS011;2080;51.038;7.008;2022-09-09T05:34:51;502.30;;;449.93;;
4132;SDS011;2080;51.038;7.008;2022-09-09T05:37:17;433.07;;;367.00;;
4132;SDS011;2080;51.038;7.008;2022-09-09T05:39:43;399.17;;;247.93;;
4132;SDS011;2080;51.038;7.008;2022-09-09T05:42:11;409.67;;;276.43;;
4132;SDS011;2080;51.038;7.008;2022-09-09T05:44:36;416.77;;;325.90;;
4132;SDS011;2080;51.038;7.008;2022-09-09T05:47:02;469.77;;;412.53;;
4132;SDS011;2080;51.038;7.008;2022-09-09T05:49:27;447.97;;;369.37;;
4132;SDS011;2080;51.038;7.008;2022-09-09T05:51:55;399.90;;;260.90;;
4132;SDS011;2080;51.038;7.008;2022-09-09T05:54:20;403.80;;;283.13;;
4132;SDS011;2080;51.038;7.008;2022-09-09T05:56:48;438.03;;;357.10;;
4132;SDS011;2080;51.038;7.008;2022-09-09T05:59:15;452.43;;;397.33;;
4132;SDS011;2080;51.038;7.008;2022-09-09T06:01:41;446.37;;;379.50;;
4132;SDS011;2080;51.038;7.008;2022-09-09T06:04:10;427.70;;;358.83;;
4132;SDS011;2080;51.038;7.008;2022-09-09T06:06:36;439.30;;;352.33;;
4132;SDS011;2080;51.038;7.008;2022-09-09T06:09:06;460.87;;;397.90;;
4132;SDS011;2080;51.038;7.008;2022-09-09T06:11:35;445.77;;;368.97;;
4132;SDS011;2080;51.038;7.008;2022-09-09T06:14:02;446.87;;;376.67;;
4132;SDS011;2080;51.038;7.008;2022-09-09T06:16:31;423.30;;;334.13;;
4132;SDS011;2080;51.038;7.008;2022-09-09T06:18:58;431.20;;;338.73;;
4132;SDS011;2080;51.038;7.008;2022-09-09T06:21:31;431.40;;;333.03;;
4132;SDS011;2080;51.038;7.008;2022-09-09T06:24:02;418.73;;;298.90;;
4132;SDS011;2080;51.038;7.008;2022-09-09T06:26:30;383.07;;;213.90;;
4132;SDS011;2080;51.038;7.008;2022-09-09T06:28:56;414.37;;;271.43;;
4132;SDS011;2080;51.038;7.008;2022-09-09T06:31:24;458.77;;;387.03;;
4132;SDS011;2080;51.038;7.008;2022-09-09T06:33:55;406.57;;;297.67;;
4132;SDS011;2080;51.038;7.008;2022-09-09T06:36:25;470.03;;;396.63;;
4132;SDS011;2080;51.038;7.008;2022-09-09T06:38:54;483.03;;;432.07;;
4132;SDS011;2080;51.038;7.008;2022-09-09T06:41:23;459.70;;;398.70;;
4132;SDS011;2080;51.038;7.008;2022-09-09T06:43:53;457.10;;;389.17;;
4132;SDS011;2080;51.038;7.008;2022-09-09T06:46:19;520.67;;;468.37;;
4132;SDS011;2080;51.038;7.008;2022-09-09T06:48:46;431.23;;;344.90;;
4132;SDS011;2080;51.038;7.008;2022-09-09T06:51:13;563.97;;;510.27;;
4132;SDS011;2080;51.038;7.008;2022-09-09T06:53:43;456.80;;;407.67;;
4132;SDS011;2080;51.038;7.008;2022-09-09T06:56:28;452.27;;;403.27;;
4132;SDS011;2080;51.038;7.008;2022-09-09T06:58:56;428.60;;;368.73;;
4132;SDS011;2080;51.038;7.008;2022-09-09T07:01:24;415.67;;;330.63;;
4132;SDS011;2080;51.038;7.008;2022-09-09T07:03:54;367.83;;;173.70;;
4132;SDS011;2080;51.038;7.008;2022-09-09T07:08:49;398.83;;;253.57;;
4132;SDS011;2080;51.038;7.008;2022-09-09T07:11:16;384.10;;;212.37;;
4132;SDS011;2080;51.038;7.008;2022-09-09T07:13:42;571.50;;;514.97;;
4132;SDS011;2080;51.038;7.008;2022-09-09T07:16:10;620.93;;;563.53;;
4132;SDS011;2080;51.038;7.008;2022-09-09T07:18:40;376.87;;;206.47;;
4132;SDS011;2080;51.038;7.008;2022-09-09T07:21:07;332.47;;;113.07;;
4132;SDS011;2080;51.038;7.008;2022-09-09T07:23:35;360.30;;;166.13;;
4132;SDS011;2080;51.038;7.008;2022-09-09T07:26:01;424.30;;;348.30;;
4132;SDS011;2080;51.038;7.008;2022-09-09T07:28:27;421.83;;;295.17;;
4132;SDS011;2080;51.038;7.008;2022-09-09T07:30:57;400.60;;;272.80;;
4132;SDS011;2080;51.038;7.008;2022-09-09T07:33:24;357.97;;;118.43;;
4132;SDS011;2080;51.038;7.008;2022-09-09T07:35:51;415.77;;;267.60;;
4132;SDS011;2080;51.038;7.008;2022-09-09T07:38:18;472.10;;;391.90;;
4132;SDS011;2080;51.038;7.008;2022-09-09T07:40:44;341.03;;;105.73;;
4132;SDS011;2080;51.038;7.008;2022-09-09T07:43:10;332.10;;;107.87;;
4132;SDS011;2080;51.038;7.008;2022-09-09T07:45:36;353.50;;;122.33;;
4132;SDS011;2080;51.038;7.008;2022-09-09T07:48:02;363.90;;;137.60;;
4132;SDS011;2080;51.038;7.008;2022-09-09T07:50:32;357.20;;;102.33;;
4132;SDS011;2080;51.038;7.008;2022-09-09T07:53:00;319.47;;;75.93;;
4132;SDS011;2080;51.038;7.008;2022-09-09T07:55:30;375.13;;;172.37;;
4132;SDS011;2080;51.038;7.008;2022-09-09T07:57:55;329.07;;;68.93;;
4132;SDS011;2080;51.038;7.008;2022-09-09T08:00:20;305.33;;;58.50;;
4132;SDS011;2080;51.038;7.008;2022-09-09T08:02:47;318.43;;;74.67;;
4132;SDS011;2080;51.038;7.008;2022-09-09T08:05:13;311.50;;;67.13;;
4132;SDS011;2080;51.038;7.008;2022-09-09T08:07:38;338.63;;;66.80;;
4132;SDS011;2080;51.038;7.008;2022-09-09T08:10:04;354.03;;;108.93;;
4132;SDS011;2080;51.038;7.008;2022-09-09T08:12:31;315.93;;;52.60;;
4132;SDS011;2080;51.038;7.008;2022-09-09T08:14:57;320.23;;;72.43;;
4132;SDS011;2080;51.038;7.008;2022-09-09T08:17:22;457.83;;;366.33;;
4132;SDS011;2080;51.038;7.008;2022-09-09T08:19:48;386.67;;;150.40;;
4132;SDS011;2080;51.038;7.008;2022-09-09T08:22:15;365.47;;;142.90;;
4132;SDS011;2080;51.038;7.008;2022-09-09T08:24:40;400.10;;;227.03;;
4132;SDS011;2080;51.038;7.008;2022-09-09T08:27:06;380.10;;;167.83;;
4132;SDS011;2080;51.038;7.008;2022-09-09T08:29:31;372.33;;;182.20;;
4132;SDS011;2080;51.038;7.008;2022-09-09T08:31:57;299.13;;;50.57;;
4132;SDS011;2080;51.038;7.008;2022-09-09T08:34:29;388.20;;;165.83;;
4132;SDS011;2080;51.038;7.008;2022-09-09T08:36:57;307.67;;;56.57;;
4132;SDS011;2080;51.038;7.008;2022-09-09T08:39:22;312.47;;;67.10;;
4132;SDS011;2080;51.038;7.008;2022-09-09T08:41:52;337.23;;;123.93;;
4132;SDS011;2080;51.038;7.008;2022-09-09T08:54:50;302.30;;;58.50;;
4132;SDS011;2080;51.038;7.008;2022-09-09T08:57:23;329.77;;;75.73;;
4132;SDS011;2080;51.038;7.008;2022-09-09T08:59:53;303.23;;;60.80;;
4132;SDS011;2080;51.038;7.008;2022-09-09T09:05:19;303.67;;;50.87;;
4132;SDS011;2080;51.038;7.008;2022-09-09T09:07:59;299.40;;;46.33;;
4132;SDS011;2080;51.038;7.008;2022-09-09T09:10:33;407.53;;;221.87;;
4132;SDS011;2080;51.038;7.008;2022-09-09T09:13:13;384.13;;;208.60;;
4132;SDS011;2080;51.038;7.008;2022-09-09T09:15:41;367.50;;;141.30;;
4132;SDS011;2080;51.038;7.008;2022-09-09T09:18:12;400.20;;;249.43;;
4132;SDS011;2080;51.038;7.008;2022-09-09T09:23:24;330.37;;;75.83;;
4132;SDS011;2080;51.038;7.008;2022-09-09T09:25:52;320.80;;;52.63;;
4132;SDS011;2080;51.038;7.008;2022-09-09T09:28:32;379.10;;;201.70;;
4132;SDS011;2080;51.038;7.008;2022-09-09T09:31:05;357.07;;;158.97;;
4132;SDS011;2080;51.038;7.008;2022-09-09T09:36:08;392.20;;;187.70;;
4132;SDS011;2080;51.038;7.008;2022-09-09T09:38:34;366.87;;;177.83;;
4132;SDS011;2080;51.038;7.008;2022-09-09T09:41:01;376.57;;;193.87;;
4132;SDS011;2080;51.038;7.008;2022-09-09T09:45:59;364.90;;;142.77;;
4132;SDS011;2080;51.038;7.008;2022-09-09T09:48:26;359.77;;;161.80;;
4132;SDS011;2080;51.038;7.008;2022-09-09T09:50:56;365.93;;;139.73;;
4132;SDS011;2080;51.038;7.008;2022-09-09T09:53:26;345.47;;;96.63;;
4132;SDS011;2080;51.038;7.008;2022-09-09T09:55:58;339.33;;;93.90;;
4132;SDS011;2080;51.038;7.008;2022-09-09T09:58:26;306.57;;;50.23;;
4132;SDS011;2080;51.038;7.008;2022-09-09T10:00:56;336.70;;;90.83;;
4132;SDS011;2080;51.038;7.008;2022-09-09T10:05:57;350.03;;;109.33;;
4132;SDS011;2080;51.038;7.008;2022-09-09T10:08:24;384.67;;;160.97;;
4132;SDS011;2080;51.038;7.008;2022-09-09T10:13:40;295.03;;;39.63;;
4132;SDS011;2080;51.038;7.008;2022-09-09T10:19:31;326.90;;;73.83;;
4132;SDS011;2080;51.038;7.008;2022-09-09T10:30:12;296.57;;;37.73;;
4132;SDS011;2080;51.038;7.008;2022-09-09T10:32:46;357.00;;;118.73;;
4132;SDS011;2080;51.038;7.008;2022-09-09T10:35:33;341.10;;;91.70;;
4132;SDS011;2080;51.038;7.008;2022-09-09T10:48:39;295.10;;;42.43;;
4132;SDS011;2080;51.038;7.008;2022-09-09T10:51:32;295.63;;;40.00;;
4132;SDS011;2080;51.038;7.008;2022-09-09T10:56:44;312.57;;;43.93;;
4132;SDS011;2080;51.038;7.008;2022-09-09T10:59:22;287.60;;;27.63;;
4132;SDS011;2080;51.038;7.008;2022-09-09T11:04:35;287.60;;;29.00;;
4132;SDS011;2080;51.038;7.008;2022-09-09T11:07:08;290.90;;;29.13;;
4132;SDS011;2080;51.038;7.008;2022-09-09T11:09:40;284.47;;;28.80;;
4132;SDS011;2080;51.038;7.008;2022-09-09T11:12:22;281.97;;;23.23;;
4132;SDS011;2080;51.038;7.008;2022-09-09T11:14:59;285.23;;;27.83;;
4132;SDS011;2080;51.038;7.008;2022-09-09T11:17:48;317.13;;;56.83;;
4132;SDS011;2080;51.038;7.008;2022-09-09T11:20:17;290.03;;;41.03;;
4132;SDS011;2080;51.038;7.008;2022-09-09T11:22:55;285.20;;;26.27;;
4132;SDS011;2080;51.038;7.008;2022-09-09T11:25:26;296.33;;;32.97;;
4132;SDS011;2080;51.038;7.008;2022-09-09T11:28:18;283.83;;;27.43;;
4132;SDS011;2080;51.038;7.008;2022-09-09T11:41:49;292.10;;;36.43;;
4132;SDS011;2080;51.038;7.008;2022-09-09T11:44:19;285.13;;;25.77;;
4132;SDS011;2080;51.038;7.008;2022-09-09T11:46:56;295.40;;;24.80;;
4132;SDS011;2080;51.038;7.008;2022-09-09T11:49:26;289.30;;;23.67;;
4132;SDS011;2080;51.038;7.008;2022-09-09T12:00:41;279.07;;;21.60;;
4132;SDS011;2080;51.038;7.008;2022-09-09T12:06:13;277.47;;;20.90;;
4132;SDS011;2080;51.038;7.008;2022-09-09T12:09:07;284.07;;;24.03;;
4132;SDS011;2080;51.038;7.008;2022-09-09T12:12:16;309.50;;;45.67;;
4132;SDS011;2080;51.038;7.008;2022-09-09T12:17:41;287.70;;;23.20;;
4132;SDS011;2080;51.038;7.008;2022-09-09T12:31:20;297.50;;;31.63;;
4132;SDS011;2080;51.038;7.008;2022-09-09T12:33:49;291.70;;;37.57;;
4132;SDS011;2080;51.038;7.008;2022-09-09T12:36:27;290.23;;;34.77;;
4132;SDS011;2080;51.038;7.008;2022-09-09T12:39:09;286.40;;;30.33;;
4132;SDS011;2080;51.038;7.008;2022-09-09T12:41:55;295.53;;;28.97;;
4132;SDS011;2080;51.038;7.008;2022-09-09T12:44:22;290.10;;;25.27;;
4132;SDS011;2080;51.038;7.008;2022-09-09T12:46:54;282.03;;;23.43;;
4132;SDS011;2080;51.038;7.008;2022-09-09T12:49:24;296.57;;;29.37;;
4132;SDS011;2080;51.038;7.008;2022-09-09T12:51:51;281.77;;;25.20;;
4132;SDS011;2080;51.038;7.008;2022-09-09T12:54:17;285.27;;;31.17;;
4132;SDS011;2080;51.038;7.008;2022-09-09T12:56:45;320.83;;;57.90;;
4132;SDS011;2080;51.038;7.008;2022-09-09T12:59:26;299.00;;;45.63;;
4132;SDS011;2080;51.038;7.008;2022-09-09T13:02:11;295.83;;;49.47;;
4132;SDS011;2080;51.038;7.008;2022-09-09T13:04:48;299.93;;;55.80;;
4132;SDS011;2080;51.038;7.008;2022-09-09T13:07:18;343.03;;;125.03;;
4132;SDS011;2080;51.038;7.008;2022-09-09T13:09:45;353.57;;;117.03;;
4132;SDS011;2080;51.038;7.008;2022-09-09T13:12:15;347.60;;;129.27;;
4132;SDS011;2080;51.038;7.008;2022-09-09T13:14:47;360.17;;;143.53;;
4132;SDS011;2080;51.038;7.008;2022-09-09T13:17:22;352.60;;;138.47;;
4132;SDS011;2080;51.038;7.008;2022-09-09T13:19:52;347.90;;;143.57;;
4132;SDS011;2080;51.038;7.008;2022-09-09T13:27:36;368.27;;;139.17;;
4132;SDS011;2080;51.038;7.008;2022-09-09T13:38:33;345.83;;;113.53;;
4132;SDS011;2080;51.038;7.008;2022-09-09T13:41:08;340.67;;;112.13;;
4132;SDS011;2080;51.038;7.008;2022-09-09T13:43:49;316.77;;;69.53;;
4132;SDS011;2080;51.038;7.008;2022-09-09T13:46:28;490.90;;;437.13;;
4132;SDS011;2080;51.038;7.008;2022-09-09T13:49:40;385.63;;;187.73;;
4132;SDS011;2080;51.038;7.008;2022-09-09T13:51:41;319.13;;;81.23;;
4132;SDS011;2080;51.038;7.008;2022-09-09T13:54:11;422.40;;;253.20;;
4132;SDS011;2080;51.038;7.008;2022-09-09T13:56:38;393.20;;;177.37;;
4132;SDS011;2080;51.038;7.008;2022-09-09T13:59:09;379.80;;;169.73;;
4132;SDS011;2080;51.038;7.008;2022-09-09T14:01:36;385.63;;;154.33;;
4132;SDS011;2080;51.038;7.008;2022-09-09T14:04:04;372.07;;;163.40;;
4132;SDS011;2080;51.038;7.008;2022-09-09T14:06:35;357.13;;;95.73;;
4132;SDS011;2080;51.038;7.008;2022-09-09T14:09:11;357.67;;;97.37;;
4132;SDS011;2080;51.038;7.008;2022-09-09T14:11:37;401.07;;;216.47;;
4132;SDS011;2080;51.038;7.008;2022-09-09T14:14:03;446.80;;;340.93;;
4132;SDS011;2080;51.038;7.008;2022-09-09T14:16:29;432.07;;;341.97;;
4132;SDS011;2080;51.038;7.008;2022-09-09T14:18:55;435.80;;;311.40;;
4132;SDS011;2080;51.038;7.008;2022-09-09T14:21:24;433.57;;;329.33;;
4132;SDS011;2080;51.038;7.008;2022-09-09T14:23:50;405.27;;;253.30;;
4132;SDS011;2080;51.038;7.008;2022-09-09T14:26:15;372.20;;;186.47;;
4132;SDS011;2080;51.038;7.008;2022-09-09T14:28:45;742.97;;;671.83;;
4132;SDS011;2080;51.038;7.008;2022-09-09T14:31:11;548.53;;;491.23;;
4132;SDS011;2080;51.038;7.008;2022-09-09T14:33:38;372.23;;;158.63;;
4132;SDS011;2080;51.038;7.008;2022-09-09T14:36:06;373.03;;;188.47;;
4132;SDS011;2080;51.038;7.008;2022-09-09T14:38:35;396.37;;;224.63;;
4132;SDS011;2080;51.038;7.008;2022-09-09T14:41:05;357.27;;;143.70;;
4132;SDS011;2080;51.038;7.008;2022-09-09T14:43:39;419.87;;;305.47;;
4132;SDS011;2080;51.038;7.008;2022-09-09T14:46:09;574.60;;;519.70;;
4132;SDS011;2080;51.038;7.008;2022-09-09T14:48:39;696.60;;;633.57;;
4132;SDS011;2080;51.038;7.008;2022-09-09T14:51:09;757.67;;;689.97;;
4132;SDS011;2080;51.038;7.008;2022-09-09T14:53:52;704.60;;;639.57;;
4132;SDS011;2080;51.038;7.008;2022-09-09T14:56:24;528.67;;;472.50;;
4132;SDS011;2080;51.038;7.008;2022-09-09T14:58:52;522.77;;;468.67;;
4132;SDS011;2080;51.038;7.008;2022-09-09T15:01:20;481.00;;;426.60;;
4132;SDS011;2080;51.038;7.008;2022-09-09T15:03:49;479.80;;;424.87;;
4132;SDS011;2080;51.038;7.008;2022-09-09T15:06:20;529.43;;;475.80;;
4132;SDS011;2080;51.038;7.008;2022-09-09T15:08:49;597.13;;;540.17;;
4132;SDS011;2080;51.038;7.008;2022-09-09T15:11:17;486.37;;;434.30;;
4132;SDS011;2080;51.038;7.008;2022-09-09T15:13:43;356.37;;;158.70;;
4132;SDS011;2080;51.038;7.008;2022-09-09T15:16:18;388.87;;;239.73;;
4132;SDS011;2080;51.038;7.008;2022-09-09T15:18:44;617.73;;;558.83;;
4132;SDS011;2080;51.038;7.008;2022-09-09T15:21:18;575.43;;;517.10;;
4132;SDS011;2080;51.038;7.008;2022-09-09T15:23:44;627.83;;;567.90;;
4132;SDS011;2080;51.038;7.008;2022-09-09T15:26:10;723.60;;;658.87;;
4132;SDS011;2080;51.038;7.008;2022-09-09T15:28:39;694.23;;;632.20;;
4132;SDS011;2080;51.038;7.008;2022-09-09T15:31:12;528.23;;;475.73;;
4132;SDS011;2080;51.038;7.008;2022-09-09T15:33:48;401.00;;;225.07;;
4132;SDS011;2080;51.038;7.008;2022-09-09T15:36:25;491.90;;;440.53;;
4132;SDS011;2080;51.038;7.008;2022-09-09T15:38:58;509.07;;;456.37;;
4132;SDS011;2080;51.038;7.008;2022-09-09T15:41:26;468.63;;;418.50;;
4132;SDS011;2080;51.038;7.008;2022-09-09T15:43:53;476.37;;;425.53;;
4132;SDS011;2080;51.038;7.008;2022-09-09T15:46:24;554.10;;;500.47;;
4132;SDS011;2080;51.038;7.008;2022-09-09T15:48:54;499.83;;;448.47;;
4132;SDS011;2080;51.038;7.008;2022-09-09T15:51:21;599.20;;;542.40;;
4132;SDS011;2080;51.038;7.008;2022-09-09T15:53:48;489.77;;;439.13;;
4132;SDS011;2080;51.038;7.008;2022-09-09T15:56:18;563.53;;;507.53;;
4132;SDS011;2080;51.038;7.008;2022-09-09T15:58:44;592.43;;;536.73;;
4132;SDS011;2080;51.038;7.008;2022-09-09T16:01:09;554.47;;;499.13;;
4132;SDS011;2080;51.038;7.008;2022-09-09T16:03:38;411.13;;;263.80;;
4132;SDS011;2080;51.038;7.008;2022-09-09T16:06:09;400.90;;;244.47;;
4132;SDS011;2080;51.038;7.008;2022-09-09T16:08:42;428.90;;;309.00;;
4132;SDS011;2080;51.038;7.008;2022-09-09T16:13:42;446.90;;;322.40;;
4132;SDS011;2080;51.038;7.008;2022-09-09T16:16:12;509.30;;;454.40;;
4132;SDS011;2080;51.038;7.008;2022-09-09T16:18:39;485.27;;;428.10;;
4132;SDS011;2080;51.038;7.008;2022-09-09T16:21:12;646.67;;;584.30;;
4132;SDS011;2080;51.038;7.008;2022-09-09T16:23:42;583.40;;;526.40;;
4132;SDS011;2080;51.038;7.008;2022-09-09T16:26:12;419.40;;;290.23;;
4132;SDS011;2080;51.038;7.008;2022-09-09T16:28:42;395.53;;;235.90;;
4132;SDS011;2080;51.038;7.008;2022-09-09T16:31:08;674.03;;;612.67;;
4132;SDS011;2080;51.038;7.008;2022-09-09T16:33:38;347.00;;;135.00;;
4132;SDS011;2080;51.038;7.008;2022-09-09T16:36:07;430.57;;;318.00;;
4132;SDS011;2080;51.038;7.008;2022-09-09T16:38:37;497.00;;;443.73;;
4132;SDS011;2080;51.038;7.008;2022-09-09T16:41:03;450.73;;;364.73;;
4132;SDS011;2080;51.038;7.008;2022-09-09T16:43:33;589.50;;;529.77;;
4132;SDS011;2080;51.038;7.008;2022-09-09T16:46:08;323.23;;;101.73;;
4132;SDS011;2080;51.038;7.008;2022-09-09T16:48:41;484.03;;;430.20;;
4132;SDS011;2080;51.038;7.008;2022-09-09T16:51:09;316.10;;;64.67;;
4132;SDS011;2080;51.038;7.008;2022-09-09T16:53:41;317.13;;;81.80;;
4132;SDS011;2080;51.038;7.008;2022-09-09T16:56:11;336.93;;;111.13;;
4132;SDS011;2080;51.038;7.008;2022-09-09T16:58:39;374.17;;;136.30;;
4132;SDS011;2080;51.038;7.008;2022-09-09T17:01:05;384.43;;;202.90;;
4132;SDS011;2080;51.038;7.008;2022-09-09T17:03:31;394.87;;;222.13;;
4132;SDS011;2080;51.038;7.008;2022-09-09T17:05:57;519.10;;;466.43;;
4132;SDS011;2080;51.038;7.008;2022-09-09T17:08:27;438.13;;;309.63;;
4132;SDS011;2080;51.038;7.008;2022-09-09T17:11:00;352.50;;;115.10;;
4132;SDS011;2080;51.038;7.008;2022-09-09T17:13:25;357.67;;;149.13;;